Time;durP1;ratioP1;P1;durP2;ratioP2;P2;SDS_P1;SDS_P2;PMS_P1;PMS_P2;Temp;Humidity;BMP_temperature;BMP_pressure;BME280_temperature;BME280_humidity;BME280_pressure;Samples;Min_cycle;Max_cycle;Signal;HPM_P1;HPM_P2
2022/11/04 00:02:04;;;;;;;15.23;1.60;;;12.40;96.10;;;;;;5013577;28;20466;-70
2022/11/04 00:04:31;;;;;;;1.60;1.23;;;12.30;96.00;;;;;;5013744;28;20453;-71
2022/11/04 00:06:58;;;;;;;2.83;1.27;;;12.30;96.10;;;;;;5013622;28;20462;-70
2022/11/04 00:09:27;;;;;;;1.50;1.07;;;12.30;96.20;;;;;;5013636;28;20447;-70
2022/11/04 00:14:39;;;;;;;1.87;1.17;;;12.40;96.10;;;;;;5013745;28;20402;-70
2022/11/04 00:17:20;;;;;;;2.00;1.20;;;12.50;95.90;;;;;;5015469;28;20454;-70
2022/11/04 00:30:52;;;;;;;3.13;1.43;;;12.40;96.40;;;;;;5017145;28;20412;-70
2022/11/04 00:33:24;;;;;;;2.70;1.83;;;12.50;96.50;;;;;;5017044;28;20476;-70
2022/11/04 00:35:52;;;;;;;2.13;1.70;;;12.50;96.50;;;;;;5016948;28;20419;-71
2022/11/04 00:38:19;;;;;;;3.10;1.80;;;12.50;96.60;;;;;;5016647;28;20497;-70
2022/11/04 00:40:46;;;;;;;2.10;1.60;;;12.50;96.50;;;;;;5016801;28;20462;-70
2022/11/04 00:43:12;;;;;;;4.03;1.90;;;12.50;96.70;;;;;;5017785;28;20471;-69
2022/11/04 00:45:40;;;;;;;5.40;2.37;;;12.50;96.80;;;;;;5035723;28;20447;-69
2022/11/04 00:48:09;;;;;;;2.90;2.07;;;12.60;97.00;;;;;;5037104;28;20442;-70
2022/11/04 00:50:36;;;;;;;2.03;1.83;;;12.50;97.10;;;;;;5036567;28;20455;-68
2022/11/04 00:53:03;;;;;;;2.20;2.00;;;12.60;96.90;;;;;;5035228;28;20476;-68
2022/11/04 00:55:30;;;;;;;3.40;2.60;;;12.60;96.80;;;;;;5035882;28;20452;-67
2022/11/04 00:57:58;;;;;;;5.37;2.97;;;12.60;96.90;;;;;;5035594;28;21024;-67
2022/11/04 01:00:25;;;;;;;2.70;2.50;;;12.60;96.80;;;;;;5035100;28;20477;-67
2022/11/04 01:02:52;;;;;;;2.10;2.00;;;12.60;96.90;;;;;;5035016;28;20470;-68
2022/11/04 01:05:20;;;;;;;4.00;2.43;;;12.60;97.00;;;;;;5035751;28;20454;-67
2022/11/04 01:07:47;;;;;;;6.50;2.90;;;12.60;96.50;;;;;;5034655;28;20439;-68
2022/11/04 01:10:13;;;;;;;4.47;2.30;;;12.60;96.60;;;;;;5034720;28;20453;-68
2022/11/04 01:12:40;;;;;;;2.20;2.00;;;12.50;96.20;;;;;;5035376;28;20471;-68
2022/11/04 01:15:08;;;;;;;3.00;2.00;;;12.50;95.90;;;;;;5034849;28;20449;-68
2022/11/04 01:17:34;;;;;;;3.30;2.60;;;12.50;96.00;;;;;;5035574;28;20435;-67
2022/11/04 01:20:01;;;;;;;2.43;1.80;;;12.40;96.00;;;;;;5034950;28;20456;-67
2022/11/04 01:22:30;;;;;;;5.13;2.20;;;12.40;96.20;;;;;;5033996;28;20477;-67
2022/11/04 01:24:57;;;;;;;4.43;1.77;;;12.40;96.20;;;;;;5034503;28;20454;-68
2022/11/04 01:27:23;;;;;;;2.30;2.00;;;12.40;96.10;;;;;;5035292;28;20431;-68
2022/11/04 01:29:50;;;;;;;3.30;1.90;;;12.30;96.10;;;;;;5034836;28;20435;-68
2022/11/04 01:32:17;;;;;;;10.73;2.70;;;12.40;96.10;;;;;;5034691;28;20481;-68
2022/11/04 01:34:44;;;;;;;3.40;1.80;;;12.30;96.00;;;;;;5034941;28;20453;-68
2022/11/04 01:37:10;;;;;;;5.13;2.30;;;12.40;96.00;;;;;;5035027;28;20456;-67
2022/11/04 01:39:38;;;;;;;4.67;2.30;;;12.40;95.90;;;;;;5034749;28;20479;-68
2022/11/04 01:42:05;;;;;;;2.87;2.50;;;12.40;95.80;;;;;;5034897;28;20474;-67
2022/11/04 01:44:52;;;;;;;3.50;2.60;;;12.50;95.70;;;;;;5035324;28;20450;-68
2022/11/04 01:47:23;;;;;;;4.57;1.77;;;12.50;95.60;;;;;;5035519;28;20458;-68
2022/11/04 01:49:53;;;;;;;4.00;1.53;;;12.40;95.50;;;;;;5035206;28;20435;-68
2022/11/04 01:52:27;;;;;;;2.97;1.80;;;12.40;95.50;;;;;;5034957;28;20464;-68
2022/11/04 01:54:59;;;;;;;3.33;1.67;;;12.40;95.50;;;;;;5018606;28;21064;-68
2022/11/04 01:57:32;;;;;;;4.40;1.60;;;12.40;95.50;;;;;;5034401;28;20428;-68
2022/11/04 02:00:02;;;;;;;2.33;1.50;;;12.40;95.30;;;;;;5034401;28;20471;-68
2022/11/04 02:02:28;;;;;;;4.13;1.30;;;12.40;95.20;;;;;;5035289;28;20469;-68
2022/11/04 02:04:56;;;;;;;2.77;1.83;;;12.30;95.10;;;;;;5034828;28;20462;-67
2022/11/04 02:07:24;;;;;;;4.67;1.50;;;12.30;95.20;;;;;;5017129;28;20459;-67
2022/11/04 02:09:51;;;;;;;4.17;1.80;;;12.30;95.00;;;;;;5034043;28;20447;-68
2022/11/04 02:15:04;;;;;;;6.90;1.67;;;12.20;95.00;;;;;;5034378;28;20487;-68
2022/11/04 02:17:42;;;;;;;3.00;1.20;;;12.20;95.20;;;;;;5035130;28;20469;-67
2022/11/04 02:20:26;;;;;;;5.47;1.63;;;12.10;95.10;;;;;;5034490;28;20484;-68
2022/11/04 02:23:22;;;;;;;5.20;1.70;;;12.10;95.20;;;;;;5034426;28;20469;-68
2022/11/04 02:26:10;;;;;;;6.80;1.77;;;12.10;95.10;;;;;;5034529;28;20454;-69
2022/11/04 02:29:17;;;;;;;3.67;1.17;;;12.00;95.20;;;;;;5034118;28;20430;-69
2022/11/04 02:31:53;;;;;;;7.67;1.50;;;12.00;95.20;;;;;;5034811;28;20454;-68
2022/11/04 02:34:26;;;;;;;3.70;1.60;;;12.00;95.10;;;;;;5034006;28;20460;-68
2022/11/04 02:37:08;;;;;;;7.83;1.50;;;12.00;95.10;;;;;;5034242;28;20470;-68
2022/11/04 02:39:46;;;;;;;7.47;1.50;;;12.00;95.10;;;;;;5032844;28;20479;-68
2022/11/04 02:42:19;;;;;;;4.17;1.63;;;12.00;95.10;;;;;;5033630;28;20464;-68
2022/11/04 02:44:54;;;;;;;4.83;1.63;;;12.00;95.00;;;;;;5033683;28;20459;-68
2022/11/04 02:47:27;;;;;;;4.70;1.60;;;12.00;94.90;;;;;;5033716;28;20442;-68
2022/11/04 02:50:00;;;;;;;3.30;1.03;;;12.00;94.90;;;;;;5034127;28;20425;-68
2022/11/04 02:52:34;;;;;;;5.97;1.40;;;12.00;94.80;;;;;;5035284;28;20554;-68
2022/11/04 02:55:05;;;;;;;4.73;1.60;;;12.00;94.90;;;;;;5032573;28;20436;-68
2022/11/04 02:57:37;;;;;;;11.33;1.63;;;11.90;94.80;;;;;;5019094;28;20438;-69
2022/11/04 03:00:06;;;;;;;6.27;1.57;;;11.90;94.80;;;;;;5014407;28;20851;-69
2022/11/04 03:02:38;;;;;;;4.47;1.70;;;11.80;95.00;;;;;;5014741;28;20847;-71
2022/11/04 03:05:08;;;;;;;6.03;1.70;;;11.80;95.00;;;;;;5014500;28;20447;-71
2022/11/04 03:07:39;;;;;;;8.00;1.60;;;11.80;95.00;;;;;;5014174;28;20481;-71
2022/11/04 03:10:11;;;;;;;5.23;1.50;;;11.80;95.10;;;;;;5014327;28;20432;-71
2022/11/04 03:12:45;;;;;;;10.40;1.73;;;11.80;95.10;;;;;;5014520;28;20475;-71
2022/11/04 03:15:17;;;;;;;6.10;1.70;;;11.80;95.30;;;;;;5014587;28;20449;-71
2022/11/04 03:17:53;;;;;;;4.40;1.63;;;11.80;95.00;;;;;;5014637;28;20430;-71
2022/11/04 03:20:24;;;;;;;4.50;1.63;;;11.80;95.00;;;;;;5014116;28;20472;-71
2022/11/04 03:22:54;;;;;;;5.00;1.63;;;11.80;95.00;;;;;;5013978;28;20475;-71
2022/11/04 03:25:26;;;;;;;9.43;1.93;;;11.80;95.00;;;;;;4996832;28;20515;-71
2022/11/04 03:28:00;;;;;;;4.03;1.73;;;11.70;94.90;;;;;;5013660;28;20988;-71
2022/11/04 03:30:32;;;;;;;5.27;1.40;;;11.70;95.10;;;;;;5014139;28;20433;-71
2022/11/04 03:33:07;;;;;;;5.37;1.53;;;11.70;95.10;;;;;;5013907;28;20478;-70
2022/11/04 03:35:34;;;;;;;2.83;1.53;;;11.70;95.00;;;;;;5013830;28;20797;-70
2022/11/04 03:38:01;;;;;;;3.57;1.17;;;11.70;95.10;;;;;;5013747;28;20451;-70
2022/11/04 03:40:28;;;;;;;5.57;1.90;;;11.60;95.00;;;;;;5013860;28;20493;-70
2022/11/04 03:42:59;;;;;;;5.47;1.33;;;11.60;95.10;;;;;;5014255;28;20473;-71
2022/11/04 03:45:27;;;;;;;5.70;1.80;;;11.60;95.20;;;;;;5013910;28;20443;-71
2022/11/04 03:47:55;;;;;;;3.83;1.83;;;11.60;95.10;;;;;;5014540;28;20845;-71
2022/11/04 03:50:28;;;;;;;9.37;1.63;;;11.50;95.10;;;;;;5013711;28;20516;-71
2022/11/04 03:52:56;;;;;;;3.93;1.60;;;11.60;95.00;;;;;;5016985;28;20470;-71
2022/11/04 03:55:30;;;;;;;5.53;2.37;;;11.50;94.90;;;;;;5017689;28;20849;-71
2022/11/04 03:58:01;;;;;;;5.40;1.50;;;11.60;94.90;;;;;;5017672;28;20435;-70
2022/11/04 04:00:33;;;;;;;6.00;1.40;;;11.60;94.80;;;;;;5017766;28;20478;-71
2022/11/04 04:03:06;;;;;;;6.40;2.80;;;11.50;94.70;;;;;;5017488;28;20474;-70
2022/11/04 04:05:39;;;;;;;5.70;1.90;;;11.50;94.80;;;;;;5017409;28;20450;-70
2022/11/04 04:08:15;;;;;;;6.20;1.80;;;11.50;94.70;;;;;;5018355;28;20439;-70
2022/11/04 04:10:49;;;;;;;7.53;2.67;;;11.50;94.70;;;;;;5017467;28;20493;-70
2022/11/04 04:13:25;;;;;;;5.30;1.60;;;11.40;94.80;;;;;;5017308;28;20473;-70
2022/11/04 04:15:57;;;;;;;8.70;1.97;;;11.30;95.00;;;;;;5017222;28;20441;-71
2022/11/04 04:18:31;;;;;;;5.20;1.83;;;11.40;95.00;;;;;;5017212;28;20434;-71
2022/11/04 04:21:01;;;;;;;7.43;1.77;;;11.40;95.00;;;;;;5017195;28;20427;-70
2022/11/04 04:29:05;;;;;;;4.20;1.57;;;11.40;94.80;;;;;;5017146;28;20470;-70
2022/11/04 04:31:50;;;;;;;7.07;2.20;;;11.40;94.80;;;;;;5016836;28;20456;-70
2022/11/04 04:34:19;;;;;;;3.07;1.50;;;11.40;94.80;;;;;;5016521;28;20451;-70
2022/11/04 04:36:51;;;;;;;4.30;2.30;;;11.40;94.70;;;;;;5016812;28;20446;-70
2022/11/04 04:45:04;;;;;;;10.60;2.57;;;11.30;94.40;;;;;;5036355;28;20479;-67
2022/11/04 04:47:35;;;;;;;3.97;2.30;;;11.30;94.40;;;;;;5036996;28;20496;-67
2022/11/04 04:50:03;;;;;;;7.77;3.50;;;11.40;94.40;;;;;;5036361;28;20425;-67
2022/11/04 04:52:33;;;;;;;10.10;4.17;;;11.40;94.40;;;;;;5036189;28;20468;-67
2022/11/04 04:55:00;;;;;;;7.07;3.10;;;11.30;94.40;;;;;;5036012;28;20423;-67
2022/11/04 04:57:26;;;;;;;8.13;2.80;;;11.30;94.40;;;;;;5035964;28;20457;-67
2022/11/04 04:59:53;;;;;;;10.40;2.77;;;11.20;94.40;;;;;;5036038;28;20523;-67
2022/11/04 05:02:20;;;;;;;8.27;2.10;;;11.20;94.50;;;;;;5035356;28;20474;-67
2022/11/04 05:04:47;;;;;;;5.47;2.10;;;11.10;94.60;;;;;;5035769;28;20451;-67
2022/11/04 05:07:13;;;;;;;4.17;1.60;;;11.20;94.60;;;;;;5036204;28;20443;-68
2022/11/04 05:09:42;;;;;;;6.30;2.00;;;11.20;94.60;;;;;;5035797;28;20454;-68
2022/11/04 05:12:08;;;;;;;5.53;1.87;;;11.20;94.50;;;;;;5036190;28;20486;-68
2022/11/04 05:14:35;;;;;;;11.80;2.27;;;11.20;94.40;;;;;;5036262;28;20447;-67
2022/11/04 05:17:02;;;;;;;6.03;1.60;;;11.10;94.30;;;;;;5035694;28;20450;-67
2022/11/04 05:19:29;;;;;;;5.63;2.07;;;11.10;94.40;;;;;;5035474;28;20469;-68
2022/11/04 05:21:56;;;;;;;16.23;2.23;;;11.00;94.40;;;;;;5035248;28;20463;-67
2022/11/04 05:24:22;;;;;;;7.00;2.00;;;11.10;94.50;;;;;;5035217;28;20448;-67
2022/11/04 05:26:50;;;;;;;8.80;2.17;;;11.10;94.40;;;;;;5035199;28;20442;-67
2022/11/04 05:29:17;;;;;;;2.17;1.43;;;11.10;94.10;;;;;;5034308;28;20446;-67
2022/11/04 05:31:44;;;;;;;5.50;1.80;;;11.00;94.10;;;;;;5034928;28;20454;-67
2022/11/04 05:34:11;;;;;;;10.20;2.27;;;11.00;94.20;;;;;;5034540;28;20462;-67
2022/11/04 05:36:38;;;;;;;7.97;1.90;;;11.00;94.20;;;;;;5034978;28;20461;-68
2022/11/04 05:39:05;;;;;;;6.53;1.73;;;11.00;94.20;;;;;;5035220;28;20509;-68
2022/11/04 05:41:33;;;;;;;5.73;1.80;;;10.90;94.20;;;;;;5036063;28;20519;-68
2022/11/04 05:44:03;;;;;;;6.37;2.10;;;10.90;94.30;;;;;;5035087;28;20470;-67
2022/11/04 05:46:30;;;;;;;2.60;1.97;;;10.90;94.40;;;;;;5034740;28;20457;-67
2022/11/04 05:48:57;;;;;;;3.47;1.43;;;10.80;94.30;;;;;;5035254;28;20818;-67
2022/11/04 05:51:26;;;;;;;5.40;2.03;;;10.90;94.40;;;;;;5034885;28;20438;-67
2022/11/04 05:53:53;;;;;;;6.27;1.90;;;10.90;94.20;;;;;;5035389;28;20472;-67
2022/11/04 05:56:20;;;;;;;5.77;1.60;;;10.90;94.00;;;;;;5035054;28;20453;-67
2022/11/04 05:58:46;;;;;;;6.53;1.93;;;10.80;94.20;;;;;;5039591;28;20443;-67
2022/11/04 06:01:24;;;;;;;4.60;1.27;;;10.80;93.90;;;;;;5037004;28;20497;-67
2022/11/04 06:03:51;;;;;;;5.13;1.43;;;10.80;93.90;;;;;;5034031;28;20525;-67
2022/11/04 06:06:18;;;;;;;4.87;1.27;;;10.80;93.90;;;;;;5034359;28;20427;-67
2022/11/04 06:08:45;;;;;;;6.30;1.60;;;10.80;93.90;;;;;;5034331;28;20824;-67
2022/11/04 06:11:12;;;;;;;3.73;2.07;;;10.80;93.70;;;;;;5034790;28;20440;-67
2022/11/04 06:13:38;;;;;;;3.70;1.20;;;10.80;93.40;;;;;;5033215;28;20462;-68
2022/11/04 06:16:06;;;;;;;8.80;1.73;;;10.80;93.10;;;;;;5033934;28;20820;-68
2022/11/04 06:18:34;;;;;;;4.13;1.50;;;10.80;92.90;;;;;;5034019;28;20490;-68
2022/11/04 06:21:21;;;;;;;2.07;1.03;;;10.80;92.80;;;;;;5035762;28;20482;-67
2022/11/04 06:23:48;;;;;;;2.83;1.23;;;10.80;92.60;;;;;;5034605;28;20487;-69
2022/11/04 06:26:16;;;;;;;3.53;1.93;;;10.80;92.40;;;;;;5019340;28;20865;-71
2022/11/04 06:28:43;;;;;;;3.07;1.77;;;10.80;92.30;;;;;;5017788;28;20484;-69
2022/11/04 06:31:12;;;;;;;4.70;0.97;;;10.80;92.40;;;;;;5019265;28;20860;-70
2022/11/04 06:33:40;;;;;;;5.90;2.13;;;10.80;92.40;;;;;;5019206;28;20481;-69
2022/11/04 06:36:08;;;;;;;3.00;1.70;;;10.80;92.40;;;;;;5019301;28;20861;-69
2022/11/04 06:38:36;;;;;;;10.90;1.80;;;10.80;92.40;;;;;;5019838;28;20458;-69
2022/11/04 06:41:03;;;;;;;5.90;1.70;;;10.80;92.50;;;;;;5019781;28;20494;-69
2022/11/04 06:43:30;;;;;;;4.40;1.60;;;10.80;92.50;;;;;;5019432;28;20489;-69
2022/11/04 06:45:59;;;;;;;5.03;1.60;;;10.80;92.40;;;;;;5018540;28;20451;-69
2022/11/04 06:48:25;;;;;;;2.63;1.33;;;10.80;92.50;;;;;;5018329;28;20525;-69
2022/11/04 06:50:54;;;;;;;4.33;1.80;;;10.80;92.40;;;;;;5019653;28;20444;-69
2022/11/04 06:53:20;;;;;;;5.10;1.70;;;10.80;92.40;;;;;;5017881;28;21021;-69
2022/11/04 06:55:47;;;;;;;3.20;1.63;;;10.80;92.50;;;;;;5020487;28;20454;-69
2022/11/04 06:58:14;;;;;;;8.90;1.43;;;10.80;92.70;;;;;;5026974;28;20455;-68
2022/11/04 07:00:40;;;;;;;11.23;2.33;;;10.80;92.80;;;;;;5032754;28;20471;-68
2022/11/04 07:03:08;;;;;;;4.47;3.30;;;10.80;93.00;;;;;;5033016;28;20471;-69
2022/11/04 07:05:35;;;;;;;4.60;2.70;;;10.90;93.20;;;;;;5033556;28;20455;-67
2022/11/04 07:08:04;;;;;;;9.47;3.50;;;10.90;93.40;;;;;;5033100;28;20450;-68
2022/11/04 07:10:30;;;;;;;10.90;3.10;;;10.90;93.70;;;;;;5032454;28;20446;-69
2022/11/04 07:12:57;;;;;;;7.20;4.60;;;10.90;94.00;;;;;;5033057;28;20466;-68
2022/11/04 07:15:24;;;;;;;8.53;3.00;;;10.90;94.20;;;;;;5032988;28;20445;-68
2022/11/04 07:17:50;;;;;;;6.93;2.90;;;10.90;94.30;;;;;;5033681;28;20435;-68
2022/11/04 07:20:17;;;;;;;7.27;2.80;;;10.90;94.30;;;;;;5030681;28;20560;-68
2022/11/04 07:22:44;;;;;;;7.87;2.83;;;10.90;94.50;;;;;;5030424;28;20478;-68
2022/11/04 07:25:12;;;;;;;8.57;3.33;;;10.90;94.60;;;;;;5032089;28;20449;-69
2022/11/04 07:27:38;;;;;;;6.03;2.70;;;11.00;94.70;;;;;;5030783;28;20446;-69
2022/11/04 07:30:06;;;;;;;6.33;3.23;;;11.00;94.50;;;;;;5032018;28;20481;-68
2022/11/04 07:32:33;;;;;;;10.23;3.20;;;11.10;94.50;;;;;;5032264;28;20498;-68
2022/11/04 07:35:00;;;;;;;14.50;3.10;;;11.20;94.60;;;;;;5030858;28;20458;-68
2022/11/04 07:37:27;;;;;;;6.87;3.20;;;11.30;94.80;;;;;;5029211;28;20446;-68
2022/11/04 07:39:53;;;;;;;6.20;3.03;;;11.30;94.70;;;;;;5027891;28;20509;-68
2022/11/04 07:42:21;;;;;;;5.93;3.13;;;11.30;94.70;;;;;;5029518;28;20474;-69
2022/11/04 07:44:48;;;;;;;13.67;4.50;;;11.40;94.70;;;;;;5029851;28;20464;-68
2022/11/04 07:47:15;;;;;;;7.73;4.30;;;11.40;94.70;;;;;;5031618;28;20454;-69
2022/11/04 07:49:42;;;;;;;8.70;4.40;;;11.50;94.70;;;;;;5025833;28;20446;-69
2022/11/04 07:52:08;;;;;;;9.07;4.53;;;11.60;94.60;;;;;;5029120;28;20478;-68
2022/11/04 07:54:35;;;;;;;23.23;7.97;;;11.70;94.60;;;;;;5029624;28;20434;-68
2022/11/04 07:57:02;;;;;;;11.60;4.60;;;11.70;94.50;;;;;;5031056;28;20462;-69
2022/11/04 07:59:30;;;;;;;13.13;5.00;;;11.80;94.60;;;;;;5028133;28;20437;-69
2022/11/04 08:01:57;;;;;;;6.30;4.33;;;11.80;94.50;;;;;;5028898;28;20471;-68
2022/11/04 08:04:24;;;;;;;5.03;3.60;;;11.80;94.40;;;;;;5028274;28;20445;-68
2022/11/04 08:06:50;;;;;;;11.80;3.80;;;11.80;94.40;;;;;;5026475;28;20457;-68
2022/11/04 08:09:17;;;;;;;8.03;2.87;;;11.90;94.40;;;;;;5027241;28;20454;-68
2022/11/04 08:11:44;;;;;;;3.83;2.50;;;11.90;94.40;;;;;;5025096;28;20450;-68
2022/11/04 08:14:11;;;;;;;7.30;3.17;;;12.00;94.40;;;;;;5026079;28;20435;-68
2022/11/04 08:16:39;;;;;;;4.67;2.70;;;12.10;94.40;;;;;;5025179;28;20450;-68
2022/11/04 08:19:06;;;;;;;9.70;2.40;;;12.20;94.30;;;;;;5022287;28;20822;-69
2022/11/04 08:21:34;;;;;;;5.53;2.87;;;12.20;94.20;;;;;;5024908;28;20487;-70
2022/11/04 08:24:03;;;;;;;6.57;4.00;;;12.30;94.10;;;;;;5025524;28;20449;-68
2022/11/04 08:26:29;;;;;;;8.53;3.50;;;12.30;94.00;;;;;;5028040;28;20474;-68
2022/11/04 08:28:56;;;;;;;9.00;2.77;;;12.40;94.00;;;;;;5025530;28;20452;-68
2022/11/04 08:31:26;;;;;;;4.80;2.30;;;12.40;93.80;;;;;;5024141;28;20543;-69
2022/11/04 08:33:55;;;;;;;8.53;2.97;;;12.50;93.80;;;;;;5024643;28;20552;-68
2022/11/04 08:36:25;;;;;;;7.33;2.53;;;12.50;93.80;;;;;;5023599;28;20446;-69
2022/11/04 08:38:53;;;;;;;5.33;2.50;;;12.60;93.80;;;;;;5029376;28;20906;-69
2022/11/04 08:41:22;;;;;;;6.77;2.63;;;12.60;93.80;;;;;;5027425;28;20483;-68
2022/11/04 08:43:49;;;;;;;5.90;2.67;;;12.70;93.70;;;;;;5028277;28;20462;-70
2022/11/04 08:46:16;;;;;;;5.47;2.40;;;12.70;93.30;;;;;;5028678;28;20456;-69
2022/11/04 08:48:44;;;;;;;8.77;3.57;;;12.70;93.10;;;;;;5026388;28;20437;-69
2022/11/04 08:51:15;;;;;;;6.60;3.27;;;12.70;93.10;;;;;;5027423;28;20443;-69
2022/11/04 08:53:42;;;;;;;4.60;2.60;;;12.70;93.20;;;;;;5023879;28;20473;-70
2022/11/04 08:56:11;;;;;;;6.67;3.80;;;12.80;93.20;;;;;;5021542;28;20954;-71
2022/11/04 08:58:37;;;;;;;5.20;3.70;;;12.90;93.10;;;;;;5021920;28;20444;-71
2022/11/04 09:01:06;;;;;;;8.80;4.20;;;12.90;92.80;;;;;;5021237;28;21044;-69
2022/11/04 09:03:33;;;;;;;8.87;3.30;;;13.00;92.60;;;;;;5021970;28;20502;-69
2022/11/04 09:06:00;;;;;;;4.10;3.10;;;13.10;92.50;;;;;;5022705;28;20508;-69
2022/11/04 09:08:28;;;;;;;7.80;3.43;;;13.20;92.40;;;;;;5025166;28;20443;-69
2022/11/04 09:10:55;;;;;;;7.37;3.00;;;13.30;92.10;;;;;;5021643;28;20443;-69
2022/11/04 09:13:21;;;;;;;7.17;6.50;;;13.40;91.80;;;;;;5021225;28;20470;-69
2022/11/04 09:15:48;;;;;;;14.40;11.53;;;13.50;91.80;;;;;;5019095;28;20475;-70
2022/11/04 09:18:15;;;;;;;16.17;8.27;;;13.60;91.60;;;;;;5018069;28;20454;-70
2022/11/04 09:54:27;;;;;;;7.63;2.50;;;15.20;87.90;;;;;;5030185;28;20380;-68
2022/11/04 09:56:57;;;;;;;4.97;2.00;;;15.30;85.30;;;;;;5031223;28;20448;-68
2022/11/04 09:59:28;;;;;;;9.03;2.63;;;15.30;84.90;;;;;;5033222;28;20412;-68
2022/11/04 10:02:03;;;;;;;7.50;2.30;;;15.20;85.00;;;;;;5031582;28;20491;-69
2022/11/04 10:04:46;;;;;;;9.63;2.80;;;15.10;85.60;;;;;;5030579;28;20464;-69
2022/11/04 10:07:27;;;;;;;8.73;2.43;;;15.00;86.00;;;;;;5029255;28;20439;-69
2022/11/04 10:10:06;;;;;;;11.97;3.87;;;14.90;86.20;;;;;;5029577;28;20436;-69
2022/11/04 10:12:51;;;;;;;13.87;2.97;;;14.90;86.70;;;;;;5030988;28;20478;-68
2022/11/04 10:15:44;;;;;;;12.90;4.13;;;14.90;87.10;;;;;;5030568;28;20447;-68
2022/11/04 10:18:27;;;;;;;7.30;2.17;;;14.80;87.20;;;;;;5031159;28;20484;-68
2022/11/04 10:21:05;;;;;;;8.10;2.03;;;14.80;87.10;;;;;;5031172;28;21004;-68
2022/11/04 10:23:37;;;;;;;6.93;2.10;;;14.90;87.40;;;;;;5032748;28;20494;-68
2022/11/04 10:26:13;;;;;;;7.37;2.13;;;14.90;86.60;;;;;;5032699;28;20443;-68
2022/11/04 10:28:42;;;;;;;11.13;2.60;;;14.90;86.70;;;;;;5032329;28;20435;-70
2022/11/04 10:31:14;;;;;;;5.83;2.30;;;15.10;87.00;;;;;;5032037;28;20903;-68
2022/11/04 10:33:46;;;;;;;6.00;2.57;;;15.20;86.70;;;;;;5032208;28;20485;-68
2022/11/04 10:36:12;;;;;;;6.40;1.93;;;15.30;85.70;;;;;;5030332;28;20464;-68
2022/11/04 10:38:43;;;;;;;9.80;3.40;;;15.40;84.40;;;;;;5031272;28;20451;-68
2022/11/04 10:41:25;;;;;;;9.13;2.77;;;15.60;84.00;;;;;;5031295;28;20469;-68
2022/11/04 10:43:56;;;;;;;6.10;2.07;;;15.90;84.50;;;;;;5030126;28;20526;-68
2022/11/04 10:46:36;;;;;;;5.87;2.10;;;16.20;84.60;;;;;;5031289;28;20446;-68
2022/11/04 10:49:17;;;;;;;3.50;1.80;;;16.30;80.20;;;;;;5030215;28;20467;-68
2022/11/04 10:51:45;;;;;;;5.47;2.00;;;16.30;80.40;;;;;;5029814;28;20435;-68
2022/11/04 10:54:11;;;;;;;4.53;1.73;;;16.30;80.10;;;;;;5030622;28;20970;-68
2022/11/04 10:56:45;;;;;;;4.97;1.70;;;16.30;79.90;;;;;;5029502;28;20455;-68
2022/11/04 10:59:24;;;;;;;9.73;2.13;;;16.40;80.30;;;;;;5029044;28;20436;-68
2022/11/04 11:01:52;;;;;;;8.80;1.67;;;16.50;78.00;;;;;;5029605;28;20467;-68
2022/11/04 11:04:29;;;;;;;3.40;1.67;;;16.60;77.80;;;;;;5030202;28;20801;-68
2022/11/04 11:06:58;;;;;;;6.90;1.83;;;16.70;77.00;;;;;;5030357;28;20440;-68
2022/11/04 11:09:28;;;;;;;6.03;1.67;;;16.90;76.40;;;;;;5030170;28;20927;-68
2022/11/04 11:12:07;;;;;;;4.03;1.63;;;17.00;75.00;;;;;;5030366;28;20475;-69
2022/11/04 11:14:36;;;;;;;5.53;1.77;;;17.10;74.70;;;;;;5029160;28;20535;-68
2022/11/04 11:17:21;;;;;;;3.23;1.27;;;17.10;73.50;;;;;;5029680;28;20432;-68
2022/11/04 11:19:53;;;;;;;1.70;1.13;;;16.90;74.70;;;;;;5029203;28;20447;-68
2022/11/04 11:22:32;;;;;;;5.00;1.53;;;16.70;74.90;;;;;;5030215;28;20489;-68
2022/11/04 11:25:22;;;;;;;5.97;2.03;;;16.60;76.50;;;;;;5029409;28;20447;-68
2022/11/04 11:27:54;;;;;;;9.73;1.63;;;16.50;77.00;;;;;;5030636;28;20441;-69
2022/11/04 11:30:24;;;;;;;6.00;1.67;;;16.40;77.60;;;;;;5032335;28;20428;-69
2022/11/04 11:32:54;;;;;;;6.47;1.90;;;16.30;78.30;;;;;;5030412;28;20483;-68
2022/11/04 11:35:28;;;;;;;8.83;2.23;;;16.30;78.40;;;;;;5031491;28;20436;-68
2022/11/04 11:37:56;;;;;;;7.20;2.53;;;16.20;78.70;;;;;;5030233;28;20465;-68
2022/11/04 11:40:25;;;;;;;5.90;2.27;;;16.30;78.90;;;;;;5030818;28;20443;-68
2022/11/04 11:42:54;;;;;;;5.80;1.57;;;16.30;78.70;;;;;;5031436;28;20498;-68
2022/11/04 11:45:24;;;;;;;4.63;1.60;;;16.30;80.10;;;;;;5030433;28;20439;-68
2022/11/04 11:47:53;;;;;;;3.20;1.70;;;16.40;79.00;;;;;;5030921;28;20439;-70
2022/11/04 11:50:25;;;;;;;5.37;1.53;;;16.50;78.70;;;;;;5030542;28;20452;-70
2022/11/04 11:52:53;;;;;;;9.10;1.70;;;16.50;78.10;;;;;;5030756;28;20478;-68
2022/11/04 11:55:23;;;;;;;8.07;1.90;;;16.70;77.90;;;;;;5024258;28;20451;-73
2022/11/04 11:58:03;;;;;;;5.27;1.63;;;16.90;77.80;;;;;;5021009;28;20443;-73
2022/11/04 12:00:32;;;;;;;5.50;1.70;;;17.10;76.80;;;;;;5028780;28;20451;-70
2022/11/04 12:03:06;;;;;;;4.87;2.10;;;17.20;75.80;;;;;;5027166;28;20482;-70
2022/11/04 12:05:40;;;;;;;4.40;2.80;;;17.40;75.40;;;;;;5028676;28;20435;-71
2022/11/04 12:08:25;;;;;;;4.93;2.50;;;17.60;75.10;;;;;;5030699;28;20518;-70
2022/11/04 12:10:59;;;;;;;4.67;2.63;;;17.70;74.60;;;;;;5026600;28;20424;-70
2022/11/04 12:13:31;;;;;;;6.80;1.77;;;17.90;74.20;;;;;;5031549;28;20467;-71
2022/11/04 12:16:15;;;;;;;6.10;2.00;;;18.10;71.20;;;;;;5035057;28;20431;-69
2022/11/04 12:19:13;;;;;;;10.47;2.07;;;18.10;70.50;;;;;;5038541;28;20440;-70
2022/11/04 12:21:45;;;;;;;5.37;2.30;;;18.00;71.20;;;;;;5030015;28;20470;-69
2022/11/04 12:24:26;;;;;;;4.67;1.90;;;17.80;71.70;;;;;;5031527;28;20935;-69
2022/11/04 12:27:01;;;;;;;6.77;2.30;;;17.60;72.60;;;;;;5030432;28;20466;-69
2022/11/04 12:29:45;;;;;;;3.80;1.70;;;17.40;73.30;;;;;;5028172;28;20443;-69
2022/11/04 12:32:22;;;;;;;4.40;1.83;;;17.20;73.20;;;;;;5027779;28;20470;-69
2022/11/04 12:35:06;;;;;;;2.90;1.47;;;17.10;74.00;;;;;;5027793;28;20470;-69
2022/11/04 12:37:44;;;;;;;3.07;1.57;;;17.00;74.90;;;;;;5028333;28;20440;-69
2022/11/04 12:40:18;;;;;;;5.47;1.87;;;16.90;75.40;;;;;;5031896;28;20466;-69
2022/11/04 12:43:08;;;;;;;8.43;1.73;;;16.80;76.00;;;;;;5031483;28;20487;-69
2022/11/04 12:49:35;;;;;;;3.07;1.87;;;16.80;77.00;;;;;;5031474;28;20399;-69
2022/11/04 12:52:13;;;;;;;3.27;1.60;;;16.90;77.30;;;;;;5032651;28;20467;-69
2022/11/04 12:54:53;;;;;;;3.87;1.67;;;17.00;77.40;;;;;;5031266;28;20428;-69
2022/11/04 12:57:30;;;;;;;5.07;1.67;;;17.10;77.00;;;;;;5030273;28;20431;-69
2022/11/04 13:00:06;;;;;;;3.87;1.87;;;17.30;76.70;;;;;;5031211;28;20434;-69
2022/11/04 13:02:39;;;;;;;7.80;1.70;;;17.50;76.00;;;;;;5031040;28;20494;-69
2022/11/04 13:05:18;;;;;;;5.00;1.50;;;17.70;75.20;;;;;;5031424;28;20436;-70
2022/11/04 13:07:52;;;;;;;4.70;1.70;;;17.80;74.20;;;;;;5029595;28;20431;-70
2022/11/04 13:10:23;;;;;;;4.37;1.70;;;17.90;71.70;;;;;;5030200;28;20439;-69
2022/11/04 13:12:55;;;;;;;5.57;1.70;;;18.00;71.20;;;;;;5029321;28;20478;-69
2022/11/04 13:15:24;;;;;;;5.30;1.80;;;17.90;70.80;;;;;;5028350;28;20436;-69
2022/11/04 13:17:55;;;;;;;6.30;1.90;;;17.80;70.90;;;;;;5031720;28;20454;-69
2022/11/04 13:20:33;;;;;;;7.40;1.53;;;17.80;71.10;;;;;;5031325;28;20440;-69
2022/11/04 13:23:05;;;;;;;7.93;1.90;;;17.70;71.70;;;;;;5030569;28;20491;-69
2022/11/04 13:25:37;;;;;;;5.43;2.00;;;17.60;72.10;;;;;;5031570;28;20432;-69
2022/11/04 13:28:06;;;;;;;6.27;2.00;;;17.40;72.50;;;;;;5031465;28;20437;-69
2022/11/04 13:30:39;;;;;;;9.17;2.00;;;17.20;73.00;;;;;;5031963;28;20434;-69
2022/11/04 13:33:15;;;;;;;4.50;1.80;;;17.20;73.90;;;;;;5021261;28;20476;-70
2022/11/04 13:35:53;;;;;;;6.10;1.90;;;17.20;74.60;;;;;;5016035;28;20446;-70
2022/11/04 13:38:23;;;;;;;5.97;1.63;;;17.40;74.70;;;;;;5016149;28;20435;-70
2022/11/04 13:41:01;;;;;;;6.47;2.20;;;17.50;74.10;;;;;;5016126;28;20428;-70
2022/11/04 13:43:39;;;;;;;4.53;2.10;;;17.50;73.80;;;;;;5015815;28;20456;-70
2022/11/04 13:46:28;;;;;;;7.37;2.20;;;17.40;73.90;;;;;;5015765;28;20814;-70
2022/11/04 13:49:01;;;;;;;4.97;1.70;;;17.30;74.20;;;;;;5015810;28;20443;-70
2022/11/04 13:51:42;;;;;;;4.80;2.30;;;17.30;74.40;;;;;;5015709;28;20440;-70
2022/11/04 13:54:27;;;;;;;2.57;1.63;;;17.20;74.90;;;;;;5013014;28;20491;-70
2022/11/04 13:57:05;;;;;;;2.87;1.43;;;17.20;75.40;;;;;;5015748;28;20435;-70
2022/11/04 13:59:33;;;;;;;4.93;1.80;;;17.10;75.40;;;;;;5015116;28;20915;-70
2022/11/04 14:02:25;;;;;;;8.70;2.37;;;17.10;75.40;;;;;;5015289;28;20519;-70
2022/11/04 14:04:52;;;;;;;7.03;1.70;;;17.20;75.70;;;;;;4992410;28;20579;-70
2022/11/04 14:08:00;;;;;;;6.07;1.80;;;17.20;75.40;;;;;;5015476;28;20448;-70
2022/11/04 14:10:42;;;;;;;8.43;1.90;;;17.20;75.20;;;;;;5008612;28;20451;-70
2022/11/04 14:13:43;;;;;;;5.73;1.53;;;17.20;74.60;;;;;;5015382;28;20464;-70